Time;durP1;ratioP1;P1;durP2;ratioP2;P2;SDS_P1;SDS_P2;PMS_P1;PMS_P2;Temp;Humidity;BMP_temperature;BMP_pressure;BME280_temperature;BME280_humidity;BME280_pressure;Samples;Min_cycle;Max_cycle;Signal;HPM_P1;HPM_P2
2024/02/15 00:00:28;;;;;;;;;;;;;;;8.62;100.00;96974.53;5106329;28;20090;-68
2024/02/15 00:02:54;;;;;;;;;;;;;;;8.61;100.00;96970.31;5105756;28;20246;-69
2024/02/15 00:05:20;;;;;;;;;;;;;;;8.62;100.00;96982.38;5105669;28;19938;-68
2024/02/15 00:07:48;;;;;;;;;;;;;;;8.61;100.00;96975.53;5105584;28;20246;-69
2024/02/15 00:10:15;;;;;;;;;;;;;;;8.60;100.00;96971.28;5106344;28;19952;-68
2024/02/15 00:12:40;;;;;;;;;;;;;;;8.61;100.00;96974.72;5105614;28;19941;-73
2024/02/15 00:15:06;;;;;;;;;;;;;;;8.62;100.00;96979.75;5105007;28;19991;-73
2024/02/15 00:17:35;;;;;;;;;;;;;;;8.61;100.00;96970.31;5105485;28;19948;-72
2024/02/15 00:20:04;;;;;;;;;;;;;;;8.60;100.00;96971.28;5106183;28;19938;-74
2024/02/15 00:22:31;;;;;;;;;;;;;;;8.59;100.00;96966.25;5105605;28;19937;-74
2024/02/15 00:24:58;;;;;;;;;;;;;;;8.58;100.00;96962.84;5104822;28;20111;-74
2024/02/15 00:27:23;;;;;;;;;;;;;;;8.58;100.00;96960.22;5105820;28;19942;-75
2024/02/15 00:29:49;;;;;;;;;;;;;;;8.58;100.00;96965.44;5106007;28;19952;-77
2024/02/15 00:32:15;;;;;;;;;;;;;;;8.58;100.00;96962.03;5105174;28;19937;-68
2024/02/15 00:34:41;;;;;;;;;;;;;;;8.57;100.00;96966.47;5104150;28;20128;-66
2024/02/15 00:37:07;;;;;;;;;;;;;;;8.55;100.00;96971.06;5105050;28;19927;-66
2024/02/15 00:39:33;;;;;;;;;;;;;;;8.51;100.00;96962.78;5105075;28;19943;-67
2024/02/15 00:42:00;;;;;;;;;;;;;;;8.51;100.00;96969.84;5105525;28;19934;-67
2024/02/15 00:44:26;;;;;;;;;;;;;;;8.50;100.00;96971.66;5104998;28;19937;-66
2024/02/15 00:46:52;;;;;;;;;;;;;;;8.49;100.00;96958.75;5086954;28;19940;-73
2024/02/15 00:49:20;;;;;;;;;;;;;;;8.45;100.00;96955.72;5104857;28;19953;-73
2024/02/15 00:51:46;;;;;;;;;;;;;;;8.45;100.00;96957.53;5105317;28;19937;-73
2024/02/15 00:54:12;;;;;;;;;;;;;;;8.41;100.00;96954.47;5104855;28;19933;-74
2024/02/15 00:56:38;;;;;;;;;;;;;;;8.37;100.00;96953.22;5105335;28;19961;-75
2024/02/15 00:59:05;;;;;;;;;;;;;;;8.33;100.00;96950.16;5105510;28;20088;-75
2024/02/15 01:01:31;;;;;;;;;;;;;;;8.31;100.00;96959.22;5086634;28;19937;-75
2024/02/15 01:03:57;;;;;;;;;;;;;;;8.27;100.00;96950.13;5104982;28;19936;-74
2024/02/15 01:06:23;;;;;;;;;;;;;;;8.22;100.00;96948.09;5104804;28;19936;-69
2024/02/15 01:08:49;;;;;;;;;;;;;;;8.18;100.00;96946.84;5104465;28;19954;-69
2024/02/15 01:11:15;;;;;;;;;;;;;;;8.13;100.00;96947.44;5104495;28;19947;-69
2024/02/15 01:13:40;;;;;;;;;;;;;;;8.07;100.00;96947.38;5105261;28;20268;-68
2024/02/15 01:16:07;;;;;;;;;;;;;;;8.01;100.00;96951.56;5104435;28;19943;-69
2024/02/15 01:18:34;;;;;;;;;;;;;;;7.96;100.00;96948.72;5087007;28;19978;-69
2024/02/15 01:21:00;;;;;;;;;;;;;;;7.91;100.00;96941.41;5104346;28;19949;-69
2024/02/15 01:23:26;;;;;;;;;;;;;;;7.87;100.00;96945.44;5104383;28;20240;-73
2024/02/15 01:25:52;;;;;;;;;;;;;;;7.81;100.00;96946.19;5104850;28;19939;-72
2024/02/15 01:28:19;;;;;;;;;;;;;;;7.79;100.00;96956.00;5104261;28;19943;-67
2024/02/15 01:30:45;;;;;;;;;;;;;;;7.76;100.00;96948.53;5104135;28;19950;-66
2024/02/15 01:33:11;;;;;;;;;;;;;;;7.71;100.00;96956.94;5104434;28;19935;-66
2024/02/15 01:35:38;;;;;;;;;;;;;;;7.67;100.00;96957.50;5104210;28;20224;-67
2024/02/15 01:38:04;;;;;;;;;;;;;;;7.60;100.00;96946.16;5104126;28;20235;-67
2024/02/15 01:40:29;;;;;;;;;;;;;;;7.56;100.00;96950.13;5104644;28;19937;-67
2024/02/15 01:42:58;;;;;;;;;;;;;;;7.51;100.00;96951.50;5104111;28;19940;-70
2024/02/15 01:45:25;;;;;;;;;;;;;;;7.49;100.00;96947.47;5104612;28;19937;-66
2024/02/15 01:47:52;;;;;;;;;;;;;;;7.46;100.00;96953.06;5104841;28;19936;-67
2024/02/15 01:50:19;;;;;;;;;;;;;;;7.43;100.00;96946.44;5103951;28;19955;-67
2024/02/15 01:52:47;;;;;;;;;;;;;;;7.39;100.00;96954.78;5103997;28;19936;-67
2024/02/15 01:55:14;;;;;;;;;;;;;;;7.32;100.00;96950.31;5103958;28;19940;-67
2024/02/15 01:57:43;;;;;;;;;;;;;;;7.29;100.00;96948.09;5103811;28;19967;-66
2024/02/15 02:00:09;;;;;;;;;;;;;;;7.25;100.00;96943.44;5085969;28;19951;-67
2024/02/15 02:02:46;;;;;;;;;;;;;;;7.20;100.00;96945.75;5104010;28;19947;-69
2024/02/15 02:05:12;;;;;;;;;;;;;;;7.15;100.00;96942.91;5103868;28;19937;-68
2024/02/15 02:07:38;;;;;;;;;;;;;;;7.09;100.00;96940.03;5103816;28;19937;-69
2024/02/15 02:10:05;;;;;;;;;;;;;;;7.05;100.00;96936.16;5103744;28;20144;-69
2024/02/15 02:12:31;;;;;;;;;;;;;;;7.02;100.00;96941.75;5104615;28;20099;-69
2024/02/15 02:14:57;;;;;;;;;;;;;;;6.99;100.00;96942.13;5103812;28;19931;-69
2024/02/15 02:17:23;;;;;;;;;;;;;;;6.96;100.00;96945.09;5105191;28;19945;-69
2024/02/15 02:19:52;;;;;;;;;;;;;;;6.92;100.00;96943.84;5108374;28;20098;-75
2024/02/15 02:22:18;;;;;;;;;;;;;;;6.87;100.00;96940.97;5107692;28;19938;-73
2024/02/15 02:24:54;;;;;;;;;;;;;;;6.81;100.00;96944.31;5107662;28;19938;-73
2024/02/15 02:27:21;;;;;;;;;;;;;;;6.75;100.00;96945.84;5108158;28;19941;-73
2024/02/15 02:29:46;;;;;;;;;;;;;;;6.71;100.00;96940.16;5107515;28;19953;-72
2024/02/15 02:32:12;;;;;;;;;;;;;;;6.68;100.00;96942.34;5108283;28;20213;-72
2024/02/15 02:34:40;;;;;;;;;;;;;;;6.64;100.00;96939.28;5107511;28;19936;-72
2024/02/15 02:37:07;;;;;;;;;;;;;;;6.60;100.00;96940.63;5107478;28;19946;-74
2024/02/15 02:39:34;;;;;;;;;;;;;;;6.57;100.00;96940.97;5107951;28;20046;-69
2024/02/15 02:42:00;;;;;;;;;;;;;;;6.55;100.00;96945.59;5107325;28;19931;-73
2024/02/15 02:44:25;;;;;;;;;;;;;;;6.52;100.00;96938.13;5107317;28;19963;-73
2024/02/15 02:46:51;;;;;;;;;;;;;;;6.48;100.00;96935.06;5107267;28;19962;-77
2024/02/15 02:49:17;;;;;;;;;;;;;;;6.44;100.00;96936.41;5107911;28;20316;-77
2024/02/15 02:51:43;;;;;;;;;;;;;;;6.42;100.00;96932.38;5107180;28;19975;-76
2024/02/15 02:54:09;;;;;;;;;;;;;;;6.40;100.00;96932.53;5107959;28;19943;-77
2024/02/15 02:56:35;;;;;;;;;;;;;;;6.38;100.00;96920.69;5106926;28;19999;-72
2024/02/15 02:59:00;;;;;;;;;;;;;;;6.35;100.00;96937.47;5106980;28;19944;-68
2024/02/15 03:01:26;;;;;;;;;;;;;;;6.32;100.00;96932.66;5106994;28;20059;-68
2024/02/15 03:03:55;;;;;;;;;;;;;;;6.28;100.00;96932.19;5107683;28;19943;-68
2024/02/15 03:06:21;;;;;;;;;;;;;;;6.26;100.00;96933.34;5106906;28;19937;-67
2024/02/15 03:08:47;;;;;;;;;;;;;;;6.23;100.00;96937.09;5107320;28;20237;-68
2024/02/15 03:11:14;;;;;;;;;;;;;;;6.22;100.00;96945.13;5106717;28;20135;-67
2024/02/15 03:13:40;;;;;;;;;;;;;;;6.19;100.00;96942.84;5107206;28;20231;-75
2024/02/15 03:16:06;;;;;;;;;;;;;;;6.20;100.00;96942.69;5107512;28;19931;-68
2024/02/15 03:18:35;;;;;;;;;;;;;;;6.21;100.00;96949.50;5106700;28;20005;-83
2024/02/15 03:21:01;;;;;;;;;;;;;;;6.19;100.00;96935.84;5106542;28;19932;-82
2024/02/15 03:23:28;;;;;;;;;;;;;;;6.18;100.00;96939.44;5089318;28;19945;-82
2024/02/15 03:25:54;;;;;;;;;;;;;;;6.17;100.00;96937.81;5106572;28;19925;-84
2024/02/15 03:28:21;;;;;;;;;;;;;;;6.15;100.00;96926.75;5106304;28;19942;-82
2024/02/15 03:30:46;;;;;;;;;;;;;;;6.13;100.00;96928.75;5106374;28;19957;-82
2024/02/15 03:33:13;;;;;;;;;;;;;;;6.10;100.00;96939.53;5106332;28;19937;-70
2024/02/15 03:35:39;;;;;;;;;;;;;;;6.10;100.00;96932.50;5089079;28;19937;-73
2024/02/15 03:38:05;;;;;;;;;;;;;;;6.08;100.00;96933.69;5106788;28;19944;-73
2024/02/15 03:40:32;;;;;;;;;;;;;;;6.07;100.00;96935.47;5107019;28;19939;-72
2024/02/15 03:42:58;;;;;;;;;;;;;;;6.07;100.00;96937.28;5106177;28;19943;-73
2024/02/15 03:45:25;;;;;;;;;;;;;;;6.04;100.00;96932.41;5106359;28;20124;-72
2024/02/15 03:47:51;;;;;;;;;;;;;;;6.03;100.00;96939.44;5106072;28;19944;-72
2024/02/15 03:50:18;;;;;;;;;;;;;;;6.03;100.00;96934.22;5105984;28;19953;-68
2024/02/15 03:52:45;;;;;;;;;;;;;;;6.03;100.00;96936.03;5106004;28;20219;-73
2024/02/15 03:55:11;;;;;;;;;;;;;;;6.03;100.00;96946.44;5106451;28;19937;-68
2024/02/15 03:57:40;;;;;;;;;;;;;;;6.02;100.00;96944.81;5106021;28;19965;-67
2024/02/15 04:00:08;;;;;;;;;;;;;;;6.04;100.00;96942.81;5105773;28;19947;-68
2024/02/15 04:02:35;;;;;;;;;;;;;;;6.04;100.00;96948.03;5106576;28;20169;-68
2024/02/15 04:05:01;;;;;;;;;;;;;;;6.03;100.00;96943.81;5105706;28;19936;-68
2024/02/15 04:07:27;;;;;;;;;;;;;;;6.05;100.00;96947.06;5106184;28;20005;-68
2024/02/15 04:09:53;;;;;;;;;;;;;;;6.06;100.00;96933.03;5105490;28;19965;-73
2024/02/15 04:12:19;;;;;;;;;;;;;;;6.08;100.00;96938.88;5105613;28;19937;-68
2024/02/15 04:14:45;;;;;;;;;;;;;;;6.08;100.00;96931.06;5087300;28;19962;-68
2024/02/15 04:17:13;;;;;;;;;;;;;;;6.07;100.00;96932.88;5106295;28;19928;-68
2024/02/15 04:19:40;;;;;;;;;;;;;;;6.07;100.00;96937.28;5105965;28;19937;-69
2024/02/15 04:22:07;;;;;;;;;;;;;;;6.06;100.00;96941.66;5105345;28;19926;-68
2024/02/15 04:24:34;;;;;;;;;;;;;;;6.06;100.00;96946.06;5105348;28;19937;-68
2024/02/15 04:27:00;;;;;;;;;;;;;;;6.04;100.00;96948.03;5105326;28;19932;-68
2024/02/15 04:29:26;;;;;;;;;;;;;;;6.06;100.00;96946.88;5105280;28;19988;-76
2024/02/15 04:31:54;;;;;;;;;;;;;;;6.05;100.00;96942.66;5105231;28;19937;-76
2024/02/15 04:34:20;;;;;;;;;;;;;;;6.07;100.00;96947.69;5105148;28;19939;-75
2024/02/15 04:36:49;;;;;;;;;;;;;;;6.08;100.00;96939.69;5105893;28;19936;-74
2024/02/15 04:39:23;;;;;;;;;;;;;;;6.09;100.00;96943.13;5104536;28;19975;-74
2024/02/15 04:41:55;;;;;;;;;;;;;;;6.08;100.00;96936.28;5105591;28;19942;-73
2024/02/15 04:44:21;;;;;;;;;;;;;;;6.08;100.00;96937.09;5104993;28;19936;-75
2024/02/15 04:46:47;;;;;;;;;;;;;;;6.08;100.00;96931.88;5105002;28;19933;-76
2024/02/15 04:49:14;;;;;;;;;;;;;;;6.07;100.00;96934.69;5104286;28;19960;-69
2024/02/15 04:51:41;;;;;;;;;;;;;;;6.05;100.00;96928.84;5103972;28;19985;-68
2024/02/15 04:54:07;;;;;;;;;;;;;;;6.05;100.00;96923.63;5105203;28;19936;-69
2024/02/15 04:56:34;;;;;;;;;;;;;;;6.02;100.00;96916.97;5104620;28;20129;-70
2024/02/15 04:59:00;;;;;;;;;;;;;;;6.03;100.00;96926.41;5105267;28;19945;-70
2024/02/15 05:01:26;;;;;;;;;;;;;;;6.01;100.00;96917.97;5105468;28;20002;-68
2024/02/15 05:03:52;;;;;;;;;;;;;;;5.99;100.00;96917.31;5103911;28;20129;-66
2024/02/15 05:06:19;;;;;;;;;;;;;;;5.98;100.00;96918.31;5104661;28;19940;-68
2024/02/15 05:08:44;;;;;;;;;;;;;;;5.97;100.00;96908.88;5105010;28;19958;-74
2024/02/15 05:11:22;;;;;;;;;;;;;;;5.94;100.00;96911.78;5104433;28;19956;-74
2024/02/15 05:13:50;;;;;;;;;;;;;;;5.89;100.00;96901.91;5087357;28;19937;-73
2024/02/15 05:16:16;;;;;;;;;;;;;;;5.88;100.00;96909.94;5104433;28;19934;-72
2024/02/15 05:18:42;;;;;;;;;;;;;;;5.82;100.00;96908.03;5105185;28;19982;-73
2024/02/15 05:21:09;;;;;;;;;;;;;;;5.77;100.00;96902.53;5104310;28;19942;-73
2024/02/15 05:23:39;;;;;;;;;;;;;;;5.74;100.00;96902.88;5103675;28;19951;-75
2024/02/15 05:26:06;;;;;;;;;;;;;;;5.69;100.00;96906.00;5103440;28;19932;-76
2024/02/15 05:28:32;;;;;;;;;;;;;;;5.67;100.00;96911.41;5104144;28;19941;-74
2024/02/15 05:31:17;;;;;;;;;;;;;;;5.66;100.00;96903.75;5104150;28;19957;-75
2024/02/15 05:33:47;;;;;;;;;;;;;;;5.65;100.00;96905.56;5104193;28;19945;-74
2024/02/15 05:36:13;;;;;;;;;;;;;;;5.63;100.00;96907.53;5104159;28;19937;-75
2024/02/15 05:38:40;;;;;;;;;;;;;;;5.62;100.00;96910.28;5104196;28;20000;-75
2024/02/15 05:41:07;;;;;;;;;;;;;;;5.60;100.00;96909.66;5104899;28;19948;-69
2024/02/15 05:43:36;;;;;;;;;;;;;;;5.59;100.00;96911.47;5104136;28;19937;-73
2024/02/15 05:46:03;;;;;;;;;;;;;;;5.57;100.00;96916.03;5104793;28;19933;-67
2024/02/15 05:48:28;;;;;;;;;;;;;;;5.55;100.00;96920.59;5104091;28;20117;-67
2024/02/15 05:50:55;;;;;;;;;;;;;;;5.52;100.00;96928.72;5104473;28;19954;-67
2024/02/15 05:53:21;;;;;;;;;;;;;;;5.51;100.00;96923.72;5108905;28;19940;-66
2024/02/15 05:55:49;;;;;;;;;;;;;;;5.46;100.00;96922.44;5090511;28;20229;-67
2024/02/15 05:58:15;;;;;;;;;;;;;;;5.42;100.00;96922.97;5108124;28;19968;-66
2024/02/15 06:00:41;;;;;;;;;;;;;;;5.36;100.00;96916.66;5108953;28;20273;-69
2024/02/15 06:03:09;;;;;;;;;;;;;;;5.32;100.00;96925.78;5108040;28;19931;-73
2024/02/15 06:05:35;;;;;;;;;;;;;;;5.29;100.00;96926.13;5107658;28;19936;-72
2024/02/15 06:08:01;;;;;;;;;;;;;;;5.26;100.00;96929.06;5107211;28;19948;-74
2024/02/15 06:10:26;;;;;;;;;;;;;;;5.21;100.00;96927.00;5107880;28;19974;-72
2024/02/15 06:12:52;;;;;;;;;;;;;;;5.20;100.00;96922.75;5108373;28;20255;-72
2024/02/15 06:15:18;;;;;;;;;;;;;;;5.15;100.00;96917.28;5108350;28;19975;-73
2024/02/15 06:17:44;;;;;;;;;;;;;;;5.13;100.00;96918.44;5107813;28;19939;-79
2024/02/15 06:20:14;;;;;;;;;;;;;;;5.09;100.00;96915.38;5107759;28;19940;-79
2024/02/15 06:22:40;;;;;;;;;;;;;;;5.07;100.00;96923.34;5089290;28;19939;-72
2024/02/15 06:25:06;;;;;;;;;;;;;;;5.07;100.00;96923.34;5107703;28;19936;-72
2024/02/15 06:27:32;;;;;;;;;;;;;;;5.09;100.00;96920.56;5107672;28;19970;-73
2024/02/15 06:40:56;;;;;;;;;;;;;;;5.14;100.00;96901.84;5107679;28;19937;-74
2024/02/15 06:43:22;;;;;;;;;;;;;;;5.15;100.00;96911.28;5107322;28;19965;-75
2024/02/15 06:45:51;;;;;;;;;;;;;;;5.17;100.00;96906.72;5106575;28;19939;-74
2024/02/15 06:48:16;;;;;;;;;;;;;;;5.20;100.00;96907.16;5065264;28;19944;-74
2024/02/15 06:50:42;;;;;;;;;;;;;;;5.24;100.00;96905.84;5065294;28;20072;-76
2024/02/15 06:53:08;;;;;;;;;;;;;;;5.28;100.00;96907.13;5065787;28;19972;-73
2024/02/15 06:55:36;;;;;;;;;;;;;;;5.33;100.00;96909.19;5064229;28;20007;-73
2024/02/15 06:58:02;;;;;;;;;;;;;;;5.37;100.00;96910.47;5064254;28;19968;-74
2024/02/15 07:00:30;;;;;;;;;;;;;;;5.42;100.00;96900.38;5064997;28;19963;-72
2024/02/15 07:02:56;;;;;;;;;;;;;;;5.49;100.00;96906.47;5064487;28;19940;-73
2024/02/15 07:05:23;;;;;;;;;;;;;;;5.57;100.00;96900.41;5065357;28;19975;-72
2024/02/15 07:07:49;;;;;;;;;;;;;;;5.73;100.00;96904.66;5064110;28;19982;-73
2024/02/15 07:10:16;;;;;;;;;;;;;;;6.06;100.00;96909.63;5065447;28;19957;-73
2024/02/15 07:12:43;;;;;;;;;;;;;;;6.54;100.00;96902.25;5065458;28;19945;-78
2024/02/15 07:15:09;;;;;;;;;;;;;;;7.04;100.00;96886.81;5064643;28;20120;-73
2024/02/15 07:17:36;;;;;;;;;;;;;;;7.54;100.00;96885.09;5064630;28;19940;-66
2024/02/15 07:20:03;;;;;;;;;;;;;;;7.99;100.00;96871.78;5081323;28;19937;-67
2024/02/15 07:22:32;;;;;;;;;;;;;;;8.31;100.00;96871.16;5088891;28;19936;-66
2024/02/15 07:24:58;;;;;;;;;;;;;;;8.66;100.00;96865.13;5106779;28;19931;-66
2024/02/15 07:27:25;;;;;;;;;;;;;;;8.94;100.00;96855.38;5106482;28;19941;-67
2024/02/15 07:29:51;;;;;;;;;;;;;;;8.99;100.00;96852.19;5106854;28;19932;-66
2024/02/15 07:32:18;;;;;;;;;;;;;;;8.98;100.00;96854.97;5106417;28;19981;-74
2024/02/15 07:34:45;;;;;;;;;;;;;;;9.03;100.00;96892.63;5106879;28;20204;-69
2024/02/15 07:37:12;;;;;;;;;;;;;;;9.19;100.00;96854.03;5106788;28;19935;-69
2024/02/15 07:39:40;;;;;;;;;;;;;;;9.27;100.00;96848.59;5106265;28;19928;-69
2024/02/15 07:42:08;;;;;;;;;;;;;;;9.20;100.00;96840.75;5106956;28;19936;-69
2024/02/15 07:44:36;;;;;;;;;;;;;;;9.07;100.00;96827.63;5105803;28;19946;-69
2024/02/15 07:47:02;;;;;;;;;;;;;;;8.97;100.00;96833.25;5106349;28;19954;-69
2024/02/15 07:49:28;;;;;;;;;;;;;;;8.84;100.00;96826.19;5106088;28;19942;-77
2024/02/15 07:51:54;;;;;;;;;;;;;;;8.70;100.00;96832.38;5106193;28;19956;-77
2024/02/15 07:54:22;;;;;;;;;;;;;;;8.57;100.00;96843.59;5106722;28;19956;-73
2024/02/15 07:56:49;;;;;;;;;;;;;;;8.57;100.00;96842.75;5105756;28;19936;-74
2024/02/15 07:59:17;;;;;;;;;;;;;;;8.63;100.00;96840.19;5106657;28;20241;-73
2024/02/15 08:01:45;;;;;;;;;;;;;;;8.74;100.00;96836.22;5105857;28;19944;-74
2024/02/15 08:04:11;;;;;;;;;;;;;;;8.86;100.00;96839.03;5105706;28;19936;-73
2024/02/15 08:06:38;;;;;;;;;;;;;;;8.95;100.00;96840.50;5106242;28;19945;-73
2024/02/15 08:09:04;;;;;;;;;;;;;;;9.00;100.00;96825.00;5105608;28;19951;-74
2024/02/15 08:11:30;;;;;;;;;;;;;;;8.97;100.00;96824.59;5105578;28;19954;-66
2024/02/15 08:13:59;;;;;;;;;;;;;;;8.93;100.00;96822.38;5104845;28;20222;-66
2024/02/15 08:16:28;;;;;;;;;;;;;;;8.87;100.00;96825.78;5106004;28;19930;-67
2024/02/15 08:18:57;;;;;;;;;;;;;;;8.83;100.00;96824.56;5105670;28;19944;-66
2024/02/15 08:21:27;;;;;;;;;;;;;;;8.77;100.00;96817.50;5106215;28;19940;-66
2024/02/15 08:23:53;;;;;;;;;;;;;;;8.77;100.00;96827.16;5104971;28;19943;-66
2024/02/15 08:26:18;;;;;;;;;;;;;;;8.80;100.00;96816.28;5106168;28;19978;-69
2024/02/15 08:28:44;;;;;;;;;;;;;;;8.79;100.00;96812.06;5105344;28;19941;-78
2024/02/15 08:31:10;;;;;;;;;;;;;;;8.78;100.00;96811.28;5087239;28;20257;-77
2024/02/15 08:33:38;;;;;;;;;;;;;;;8.80;100.00;96797.97;5105212;28;19936;-78
2024/02/15 08:36:04;;;;;;;;;;;;;;;8.84;100.00;96802.66;5105154;28;19934;-77
2024/02/15 08:38:30;;;;;;;;;;;;;;;8.97;100.00;96806.28;5105632;28;19932;-78
2024/02/15 08:40:56;;;;;;;;;;;;;;;9.10;100.00;96806.31;5105607;28;20254;-77
2024/02/15 08:43:21;;;;;;;;;;;;;;;9.21;100.00;96799.69;5105752;28;20293;-77
2024/02/15 08:45:48;;;;;;;;;;;;;;;9.37;100.00;96785.41;5104302;28;20175;-77
2024/02/15 08:48:13;;;;;;;;;;;;;;;9.63;100.00;96781.94;5104484;28;19940;-77
2024/02/15 08:50:41;;;;;;;;;;;;;;;10.00;100.00;96784.91;5104878;28;19991;-77
2024/02/15 08:53:07;;;;;;;;;;;;;;;10.38;100.00;96771.13;5105620;28;20113;-77
2024/02/15 08:55:35;;;;;;;;;;;;;;;10.69;100.00;96746.75;5104758;28;19939;-77
2024/02/15 08:58:02;;;;;;;;;;;;;;;10.92;100.00;96754.09;5104844;28;20134;-77
2024/02/15 09:00:28;;;;;;;;;;;;;;;11.20;100.00;96740.53;5105124;28;19941;-78
2024/02/15 09:02:54;;;;;;;;;;;;;;;11.44;100.00;96714.47;5103324;28;19939;-77
2024/02/15 09:05:22;;;;;;;;;;;;;;;11.63;100.00;96731.88;5104023;28;19991;-69
2024/02/15 09:07:48;;;;;;;;;;;;;;;11.83;100.00;96701.97;5104618;28;19933;-70
2024/02/15 09:10:14;;;;;;;;;;;;;;;12.01;100.00;96690.66;5105279;28;20192;-69
2024/02/15 09:12:41;;;;;;;;;;;;;;;12.18;100.00;96699.56;5104514;28;20128;-69
2024/02/15 09:15:08;;;;;;;;;;;;;;;12.37;100.00;96689.81;5104460;28;20200;-69
2024/02/15 09:17:38;;;;;;;;;;;;;;;12.59;100.00;96669.84;5103648;28;19942;-69
2024/02/15 09:20:08;;;;;;;;;;;;;;;12.81;100.00;96632.50;5103647;28;19997;-70
2024/02/15 09:22:35;;;;;;;;;;;;;;;12.76;100.00;96663.94;5104438;28;19938;-66
2024/02/15 09:25:02;;;;;;;;;;;;;;;12.74;100.00;96666.81;5104180;28;19944;-74
2024/02/15 09:27:28;;;;;;;;;;;;;;;12.82;100.00;96668.31;5104316;28;19935;-73
2024/02/15 09:29:55;;;;;;;;;;;;;;;12.92;100.00;96660.66;5104284;28;20122;-73
2024/02/15 09:32:22;;;;;;;;;;;;;;;12.99;100.00;96653.44;5103744;28;20140;-73
2024/02/15 09:34:49;;;;;;;;;;;;;;;13.10;100.00;96641.34;5104274;28;20085;-74
2024/02/15 09:37:15;;;;;;;;;;;;;;;13.20;100.00;96657.34;5104129;28;19949;-73
2024/02/15 09:39:41;;;;;;;;;;;;;;;13.18;100.00;96608.59;5103443;28;20245;-74
2024/02/15 09:42:07;;;;;;;;;;;;;;;13.05;100.00;96637.78;5104175;28;19998;-70
2024/02/15 09:44:33;;;;;;;;;;;;;;;13.12;100.00;96633.19;5104883;28;19935;-74
2024/02/15 09:47:03;;;;;;;;;;;;;;;13.19;100.00;96620.75;5103879;28;20126;-74
2024/02/15 09:49:29;;;;;;;;;;;;;;;13.24;100.00;96630.56;5104607;28;19926;-74
2024/02/15 09:51:58;;;;;;;;;;;;;;;13.26;100.00;96629.31;5103998;28;19947;-74
2024/02/15 09:54:24;;;;;;;;;;;;;;;13.26;100.00;96589.81;5103958;28;20136;-73
2024/02/15 09:56:53;;;;;;;;;;;;;;;13.34;100.00;96605.28;5103259;28;19958;-74
2024/02/15 09:59:19;;;;;;;;;;;;;;;13.43;100.00;96631.28;5104235;28;19934;-77
2024/02/15 10:01:47;;;;;;;;;;;;;;;13.50;100.00;96627.50;5104722;28;19937;-73
2024/02/15 10:04:15;;;;;;;;;;;;;;;13.53;100.00;96597.25;5103921;28;20217;-73
2024/02/15 10:06:42;;;;;;;;;;;;;;;13.52;99.75;96596.44;5104147;28;19935;-73
2024/02/15 10:09:27;;;;;;;;;;;;;;;13.54;100.00;96581.22;5103762;28;19959;-73
2024/02/15 10:11:57;;;;;;;;;;;;;;;13.67;100.00;96603.84;5104529;28;20245;-73
2024/02/15 10:14:23;;;;;;;;;;;;;;;13.87;100.00;96598.16;5103765;28;19957;-73
2024/02/15 10:16:49;;;;;;;;;;;;;;;13.93;100.00;96596.44;5103793;28;19936;-76
2024/02/15 10:19:16;;;;;;;;;;;;;;;13.95;100.00;96602.28;5104396;28;19944;-76
2024/02/15 10:21:42;;;;;;;;;;;;;;;14.10;100.00;96583.28;5103767;28;19933;-78
2024/02/15 10:24:09;;;;;;;;;;;;;;;14.15;100.00;96594.75;5103027;28;20221;-78
2024/02/15 10:26:36;;;;;;;;;;;;;;;14.31;99.61;96568.63;5103739;28;19942;-78
2024/02/15 10:29:08;;;;;;;;;;;;;;;14.42;100.00;96573.00;5102793;28;19937;-78
2024/02/15 10:31:38;;;;;;;;;;;;;;;14.64;99.68;96565.22;5103635;28;19955;-78
2024/02/15 10:34:08;;;;;;;;;;;;;;;14.88;96.02;96551.84;5103659;28;19945;-80
2024/02/15 10:36:34;;;;;;;;;;;;;;;15.09;99.43;96560.84;5104514;28;19935;-67
2024/02/15 10:39:27;;;;;;;;;;;;;;;15.22;99.21;96556.03;5106769;28;19944;-76
2024/02/15 10:41:54;;;;;;;;;;;;;;;15.35;95.27;96546.13;5104077;28;20245;-76
2024/02/15 10:44:20;;;;;;;;;;;;;;;15.49;94.28;96536.00;5107591;28;19948;-77
2024/02/15 10:46:50;;;;;;;;;;;;;;;15.50;88.74;96508.53;5106623;28;19938;-77
2024/02/15 10:49:20;;;;;;;;;;;;;;;15.68;93.31;96533.81;5106275;28;19938;-77
2024/02/15 10:51:49;;;;;;;;;;;;;;;15.72;91.27;96524.38;5107136;28;19957;-77
2024/02/15 10:54:19;;;;;;;;;;;;;;;15.82;95.96;96543.78;5106379;28;19957;-74
2024/02/15 10:56:50;;;;;;;;;;;;;;;15.95;91.95;96515.34;5107649;28;19935;-67
2024/02/15 10:59:17;;;;;;;;;;;;;;;16.11;84.51;96476.63;5106123;28;19941;-67
2024/02/15 11:01:44;;;;;;;;;;;;;;;16.26;89.92;96505.84;5107564;28;19938;-67
2024/02/15 11:04:12;;;;;;;;;;;;;;;16.40;88.38;96493.78;5106053;28;19962;-67
2024/02/15 11:06:41;;;;;;;;;;;;;;;16.56;88.20;96475.34;5106219;28;19943;-67
2024/02/15 11:09:08;;;;;;;;;;;;;;;16.56;89.57;96483.28;5106839;28;19956;-67
2024/02/15 11:11:35;;;;;;;;;;;;;;;16.57;89.51;96480.41;5106288;28;20240;-67
2024/02/15 11:14:20;;;;;;;;;;;;;;;16.55;84.54;96456.03;5106371;28;19939;-74
2024/02/15 11:16:46;;;;;;;;;;;;;;;16.60;89.24;96481.72;5106690;28;19939;-67
2024/02/15 11:19:35;;;;;;;;;;;;;;;16.63;78.73;96431.72;5106655;28;20001;-67
2024/02/15 11:22:04;;;;;;;;;;;;;;;16.65;91.57;96484.41;5106123;28;19951;-66
2024/02/15 11:24:36;;;;;;;;;;;;;;;16.68;81.71;96454.00;5106768;28;19939;-67
2024/02/15 11:27:03;;;;;;;;;;;;;;;16.71;89.40;96559.38;5089098;28;19938;-67
2024/02/15 11:29:49;;;;;;;;;;;;;;;16.64;86.18;96576.28;5106463;28;19935;-67
2024/02/15 11:32:33;;;;;;;;;;;;;;;16.62;86.90;96570.44;5106329;28;20138;-74
2024/02/15 11:35:10;;;;;;;;;;;;;;;16.69;89.36;96574.72;5106891;28;19940;-77
2024/02/15 11:37:52;;;;;;;;;;;;;;;16.73;88.14;96568.66;5106540;28;19979;-77
2024/02/15 11:40:27;;;;;;;;;;;;;;;16.67;83.59;96553.00;5106713;28;19929;-77
2024/02/15 11:42:53;;;;;;;;;;;;;;;16.63;85.05;96566.75;5106723;28;19934;-76
2024/02/15 11:45:19;;;;;;;;;;;;;;;16.60;84.91;96567.25;5105409;28;19937;-76
2024/02/15 11:47:50;;;;;;;;;;;;;;;16.42;80.53;96560.50;5106956;28;19934;-77
2024/02/15 11:50:17;;;;;;;;;;;;;;;16.28;79.58;96555.88;5106935;28;19930;-76
2024/02/15 11:52:48;;;;;;;;;;;;;;;16.29;93.46;96590.00;5106277;28;19949;-78
2024/02/15 11:55:18;;;;;;;;;;;;;;;16.55;95.94;96590.25;5105992;28;19938;-77
2024/02/15 12:19:55;;;;;;;;;;;;;;;16.15;80.05;96543.84;5104445;28;20130;-78
2024/02/15 12:22:26;;;;;;;;;;;;;;;16.01;82.82;96557.47;5104748;28;20143;-76
2024/02/15 12:24:53;;;;;;;;;;;;;;;15.91;82.68;96552.06;5106163;28;20230;-78
2024/02/15 12:27:19;;;;;;;;;;;;;;;15.81;82.92;96557.25;5105379;28;19938;-76
2024/02/15 12:29:47;;;;;;;;;;;;;;;15.64;82.56;96549.38;5105320;28;19935;-69
2024/02/15 12:32:20;;;;;;;;;;;;;;;15.61;88.47;96563.09;5104485;28;20244;-70
2024/02/15 12:34:47;;;;;;;;;;;;;;;15.54;84.13;96546.59;5105495;28;19935;-69
2024/02/15 12:37:13;;;;;;;;;;;;;;;15.45;88.50;96546.25;5043093;28;19957;-69
2024/02/15 12:39:38;;;;;;;;;;;;;;;15.47;90.07;96546.00;5043850;28;19970;-69
2024/02/15 12:42:06;;;;;;;;;;;;;;;15.50;88.82;96542.88;5043814;28;19943;-68
2024/02/15 12:44:33;;;;;;;;;;;;;;;15.48;86.91;96544.97;5043081;28;19940;-69
2024/02/15 12:47:00;;;;;;;;;;;;;;;15.42;87.61;96539.63;5043475;28;19975;-78
2024/02/15 12:49:25;;;;;;;;;;;;;;;15.40;86.44;96533.78;5043449;28;19946;-77
2024/02/15 12:51:53;;;;;;;;;;;;;;;15.46;86.32;96537.28;5043375;28;20164;-78
2024/02/15 12:54:22;;;;;;;;;;;;;;;15.45;88.85;96535.66;5042519;28;19938;-78
2024/02/15 12:56:48;;;;;;;;;;;;;;;15.47;87.04;96520.38;5043108;28;19938;-77
2024/02/15 12:59:14;;;;;;;;;;;;;;;15.43;85.99;96522.72;5043622;28;19943;-79
2024/02/15 13:01:40;;;;;;;;;;;;;;;15.36;86.39;96513.38;5043077;28;19938;-78
2024/02/15 13:04:08;;;;;;;;;;;;;;;15.29;87.42;96520.72;5042726;28;19939;-77
2024/02/15 13:06:35;;;;;;;;;;;;;;;15.24;89.10;96524.06;5043212;28;19942;-69
2024/02/15 13:09:03;;;;;;;;;;;;;;;15.23;87.70;96522.47;5093688;28;19955;-69
2024/02/15 13:11:29;;;;;;;;;;;;;;;15.22;92.29;96524.31;5105003;28;19951;-70
2024/02/15 13:13:54;;;;;;;;;;;;;;;15.18;91.45;96525.84;5105359;28;20110;-69
2024/02/15 13:16:23;;;;;;;;;;;;;;;15.20;92.04;96520.31;5104491;28;19980;-69
2024/02/15 13:18:49;;;;;;;;;;;;;;;15.21;91.66;96514.78;5104706;28;19934;-70